Time;durP1;ratioP1;P1;durP2;ratioP2;P2;SDS_P1;SDS_P2;PMS_P1;PMS_P2;Temp;Humidity;BMP_temperature;BMP_pressure;BME280_temperature;BME280_humidity;BME280_pressure;Samples;Min_cycle;Max_cycle;Signal;HPM_P1;HPM_P2
2023/12/02 00:02:56;;;;;;;70.30;32.20;;;;;;;-0.14;100.00;97841.02;135343;1280;22523;-71
2023/12/02 00:05:59;;;;;;;;;;;;;;;-0.19;100.00;97821.42;135384;1281;22503;-73
2023/12/02 00:09:01;;;;;;;78.20;33.10;;;;;;;-0.31;100.00;97801.39;135402;1280;22651;-72
2023/12/02 00:12:04;;;;;;;;;;;;;;;-0.36;100.00;97786.77;135383;1281;22528;-70
2023/12/02 00:15:07;;;;;;;78.40;33.10;;;;;;;-0.46;100.00;97787.80;135348;1280;22531;-70
2023/12/02 00:18:09;;;;;;;76.10;32.60;;;;;;;-0.52;100.00;97791.58;135326;1281;24071;-69
2023/12/02 00:21:12;;;;;;;;;;;;;;;-0.53;100.00;97792.29;135378;1280;22537;-69
2023/12/02 00:24:14;;;;;;;68.00;28.30;;;;;;;-0.52;100.00;97783.85;135371;1279;22561;-69
2023/12/02 00:27:18;;;;;;;61.50;26.20;;;;;;;-0.51;100.00;97775.23;135317;1281;22565;-71
2023/12/02 00:30:21;;;;;;;69.00;28.30;;;;;;;-0.51;100.00;97777.63;135288;1280;22543;-70
2023/12/02 00:33:24;;;;;;;;;;;;;;;-0.52;100.00;97775.77;135323;1280;22504;-72
2023/12/02 00:36:26;;;;;;;63.00;27.60;;;;;;;-0.58;100.00;97773.91;135289;1281;22945;-68
2023/12/02 00:39:30;;;;;;;;;;;;;;;-0.54;100.00;97772.57;135321;1281;22517;-70
2023/12/02 00:42:32;;;;;;;62.80;26.80;;;;;;;-0.51;100.00;97785.54;135304;1281;25310;-70
2023/12/02 00:45:35;;;;;;;;;;;;;;;-0.51;100.00;97783.48;135387;1281;23540;-70
2023/12/02 00:48:38;;;;;;;58.50;24.50;;;;;;;-0.53;100.00;97794.20;135354;1281;22536;-71
2023/12/02 00:51:40;;;;;;;60.00;24.40;;;;;;;-0.57;100.00;97802.38;135332;1281;25291;-69
2023/12/02 00:54:43;;;;;;;66.10;27.10;;;;;;;-0.56;100.00;97798.42;135362;1281;22536;-70
2023/12/02 00:57:45;;;;;;;66.70;27.70;;;;;;;-0.50;100.00;97799.76;135393;1280;24444;-69
2023/12/02 01:00:48;;;;;;;;;;;;;;;-0.39;100.00;97816.58;135343;1281;22539;-70
2023/12/02 01:03:51;;;;;;;68.50;29.50;;;;;;;-0.39;100.00;97814.00;135359;1281;22538;-70
2023/12/02 01:06:53;;;;;;;69.70;30.10;;;;;;;-0.55;100.00;97812.81;135341;1281;22528;-71
2023/12/02 01:09:56;;;;;;;;;;;;;;;-0.56;100.00;97809.05;135374;1280;22521;-70
2023/12/02 01:12:58;;;;;;;73.60;31.60;;;;;;;-0.60;100.00;97805.05;135336;1281;22537;-70
2023/12/02 01:16:01;;;;;;;;;;;;;;;-0.61;100.00;97805.44;135390;1281;22514;-71
2023/12/02 01:19:03;;;;;;;67.00;28.50;;;;;;;-0.54;100.00;97797.48;135383;1280;25342;-71
2023/12/02 01:22:06;;;;;;;;;;;;;;;-0.45;100.00;97792.20;135377;1281;22536;-69
2023/12/02 01:25:08;;;;;;;73.70;31.30;;;;;;;-0.47;100.00;97789.35;135410;1281;22537;-70
2023/12/02 01:28:11;;;;;;;;;;;;;;;-0.51;100.00;97790.33;135394;1281;22505;-70
2023/12/02 01:31:14;;;;;;;76.90;32.60;;;;;;;-0.47;100.00;97785.75;135380;1281;22691;-71
2023/12/02 01:34:16;;;;;;;;;;;;;;;-0.52;100.00;97786.27;135372;1281;22536;-70
2023/12/02 01:37:19;;;;;;;70.60;30.70;;;;;;;-0.52;100.00;97786.94;135336;1281;22550;-71
2023/12/02 01:40:21;;;;;;;;;;;;;;;-0.56;100.00;97767.48;135365;1273;24350;-71
2023/12/02 01:43:25;;;;;;;59.80;26.30;;;;;;;-0.43;100.00;97778.23;135354;1280;22670;-70
2023/12/02 01:46:27;;;;;;;57.90;24.40;;;;;;;-0.40;100.00;97768.67;135320;1280;22548;-70
2023/12/02 01:49:30;;;;;;;59.80;24.20;;;;;;;-0.27;100.00;97771.00;135349;1280;22544;-69
2023/12/02 01:52:33;;;;;;;;;;;;;;;-0.18;100.00;97747.14;135398;1281;22513;-72
2023/12/02 01:55:35;;;;;;;56.40;23.10;;;;;;;-0.28;100.00;97749.39;135378;1280;22601;-72
2023/12/02 01:58:38;;;;;;;;;;;;;;;-0.31;100.00;97749.67;135338;1280;22521;-71
2023/12/02 02:01:40;;;;;;;52.50;21.20;;;;;;;-0.37;100.00;97741.43;135354;1281;22554;-70
2023/12/02 02:04:43;;;;;;;;;;;;;;;-0.41;100.00;97734.38;135368;1280;22525;-70
2023/12/02 02:07:45;;;;;;;43.60;17.70;;;;;;;-0.47;100.00;97737.16;135305;1281;22568;-72
2023/12/02 02:10:48;;;;;;;;;;;;;;;-0.49;100.00;97742.70;135361;1281;22548;-72
2023/12/02 02:13:51;;;;;;;52.00;21.00;;;;;;;-0.44;100.00;97730.48;135362;1280;22540;-70
2023/12/02 02:16:53;;;;;;;49.80;18.00;;;;;;;-0.37;100.00;97714.46;135345;1280;22546;-73
2023/12/02 02:19:56;;;;;;;;;;;;;;;-0.39;100.00;97705.77;135380;1280;25471;-70
2023/12/02 02:22:58;;;;;;;49.50;17.80;;;;;;;-0.39;100.00;97720.05;135349;1280;22633;-71
2023/12/02 02:26:01;;;;;;;;;;;;;;;-0.53;100.00;97713.83;135375;1280;22561;-70
2023/12/02 02:29:03;;;;;;;42.10;15.50;;;;;;;-0.42;100.00;97730.11;135360;1280;22543;-73
2023/12/02 02:32:06;;;;;;;44.50;17.70;;;;;;;-0.39;100.00;97724.85;135400;1280;25470;-70
2023/12/02 02:35:08;;;;;;;;;;;;;;;-0.23;100.00;97737.71;135386;1280;22520;-70
2023/12/02 02:38:11;;;;;;;42.10;17.10;;;;;;;-0.23;100.00;97737.52;135353;1280;22549;-70
2023/12/02 02:41:14;;;;;;;;;;;;;;;-0.30;100.00;97736.56;135393;1280;22626;-69
2023/12/02 02:44:16;;;;;;;61.90;27.40;;;;;;;-0.27;100.00;97733.40;135311;1280;22548;-71
2023/12/02 02:47:19;;;;;;;;;;;;;;;-0.36;100.00;97736.59;135322;1280;24252;-71
2023/12/02 02:50:21;;;;;;;120.20;55.40;;;;;;;-0.33;100.00;97747.69;135326;1280;22537;-71
2023/12/02 02:53:24;;;;;;;44.50;18.90;;;;;;;-0.23;100.00;97735.45;135331;1280;22545;-72
2023/12/02 02:56:26;;;;;;;;;;;;;;;-0.23;100.00;97719.15;135345;1280;22517;-69
2023/12/02 02:59:29;;;;;;;44.60;16.00;;;;;;;-0.43;100.00;97716.75;135383;1280;22564;-70
2023/12/02 03:02:32;;;;;;;43.40;17.90;;;;;;;-0.24;100.00;97721.75;135376;1280;22645;-71
2023/12/02 03:05:35;;;;;;;46.30;17.20;;;;;;;-0.37;100.00;97721.35;135349;1280;24219;-73
2023/12/02 03:08:37;;;;;;;;;;;;;;;-0.32;100.00;97716.38;135396;1280;22524;-72
2023/12/02 03:11:40;;;;;;;42.10;16.40;;;;;;;-0.28;100.00;97715.54;135353;1262;22655;-70
2023/12/02 03:14:42;;;;;;;;;;;;;;;-0.32;100.00;97708.98;135382;1280;22588;-69
2023/12/02 03:17:45;;;;;;;44.20;16.60;;;;;;;-0.46;100.00;97706.19;135340;1280;22544;-71
2023/12/02 03:20:48;;;;;;;43.80;17.00;;;;;;;-0.40;100.00;97723.32;135346;1280;25397;-71
2023/12/02 03:23:50;;;;;;;;;;;;;;;-0.49;100.00;97733.60;135381;1280;22634;-70
2023/12/02 03:26:53;;;;;;;42.30;16.60;;;;;;;-0.43;100.00;97738.57;135379;1280;22559;-70
2023/12/02 03:29:56;;;;;;;;;;;;;;;-0.48;100.00;97741.48;135389;1280;24279;-70
2023/12/02 03:32:58;;;;;;;44.70;17.20;;;;;;;-0.53;100.00;97729.10;135384;1280;22523;-70
2023/12/02 03:36:01;;;;;;;;;;;;;;;-0.50;100.00;97703.39;135382;1280;22510;-68
2023/12/02 03:39:05;;;;;;;47.10;17.50;;;;;;;-0.54;100.00;97692.38;135360;1280;22576;-69
2023/12/02 03:42:08;;;;;;;43.90;17.70;;;;;;;-0.56;100.00;97708.26;135388;1280;22539;-69
2023/12/02 03:45:11;;;;;;;;;;;;;;;-0.55;100.00;97721.27;135371;1280;22533;-70
2023/12/02 03:48:14;;;;;;;45.40;16.70;;;;;;;-0.53;100.00;97725.00;135339;1258;24217;-70
2023/12/02 03:51:16;;;;;;;;;;;;;;;-0.72;100.00;97724.06;135382;1280;22510;-70
2023/12/02 03:54:19;;;;;;;47.80;18.30;;;;;;;-0.79;100.00;97727.89;135353;1280;22564;-70
2023/12/02 03:57:22;;;;;;;43.90;18.50;;;;;;;-0.87;100.00;97731.24;135405;1280;24388;-69
2023/12/02 04:00:27;;;;;;;;;;;;;;;-0.81;100.00;97743.09;135410;1280;22504;-70
2023/12/02 04:03:29;;;;;;;46.30;17.80;;;;;;;-0.89;100.00;97750.52;135348;1280;22560;-69
2023/12/02 04:06:32;;;;;;;;;;;;;;;-0.82;100.00;97752.38;135402;1280;24332;-71
2023/12/02 04:09:34;;;;;;;44.90;16.30;;;;;;;-0.88;100.00;97741.05;135376;1280;22533;-71
2023/12/02 04:12:37;;;;;;;;;;;;;;;-0.83;100.00;97718.77;135401;1280;22510;-71
2023/12/02 04:15:39;;;;;;;41.40;14.80;;;;;;;-0.87;100.00;97719.73;135365;1280;22555;-70
2023/12/02 04:18:42;;;;;;;46.00;17.40;;;;;;;-0.76;100.00;97725.92;135378;1280;22533;-70
2023/12/02 04:21:45;;;;;;;;;;;;;;;-0.73;100.00;97726.35;135354;1280;22514;-71
2023/12/02 04:24:47;;;;;;;45.10;17.20;;;;;;;-0.80;100.00;97713.33;135352;1280;22543;-72
2023/12/02 04:27:50;;;;;;;;;;;;;;;-0.89;100.00;97708.81;135363;1280;22532;-71
2023/12/02 04:30:53;;;;;;;42.80;15.60;;;;;;;-0.86;100.00;97704.95;135308;1280;25522;-72
2023/12/02 04:33:55;;;;;;;44.40;16.70;;;;;;;-0.78;100.00;97714.81;135324;1280;22638;-72
2023/12/02 04:36:58;;;;;;;;;;;;;;;-0.75;100.00;97712.47;135387;1280;22526;-71
2023/12/02 04:40:00;;;;;;;43.60;16.10;;;;;;;-0.75;100.00;97717.98;135364;1280;22542;-70
2023/12/02 04:43:06;;;;;;;46.60;16.80;;;;;;;-0.58;100.00;97717.24;135337;1280;22590;-72
2023/12/02 04:46:08;;;;;;;53.20;22.20;;;;;;;-0.41;100.00;97718.55;135382;1280;23003;-71
2023/12/02 04:49:13;;;;;;;;;;;;;;;-0.33;100.00;97729.10;135352;1280;22516;-71
2023/12/02 04:52:15;;;;;;;51.50;20.20;;;;;;;-0.41;100.00;97731.29;135327;1280;22590;-71
2023/12/02 04:55:18;;;;;;;59.20;22.20;;;;;;;-0.33;100.00;97730.65;135353;1280;25484;-72
2023/12/02 04:58:20;;;;;;;;;;;;;;;-0.42;100.00;97718.24;135337;1280;23931;-69
2023/12/02 05:01:23;;;;;;;53.60;18.40;;;;;;;-0.53;100.00;97701.45;135302;1280;22620;-71
2023/12/02 05:04:26;;;;;;;44.60;16.50;;;;;;;-0.55;100.00;97688.64;135330;1280;22542;-71
2023/12/02 05:07:28;;;;;;;47.80;18.20;;;;;;;-0.73;100.00;97689.09;135331;1280;22559;-71
2023/12/02 05:10:31;;;;;;;;;;;;;;;-0.67;100.00;97683.39;135323;1280;22542;-69
2023/12/02 05:13:33;;;;;;;54.40;19.90;;;;;;;-0.68;100.00;97675.87;135355;1280;22604;-71
2023/12/02 05:16:36;;;;;;;;;;;;;;;-0.81;100.00;97688.81;135367;1262;22513;-71
2023/12/02 05:19:38;;;;;;;51.90;19.10;;;;;;;-0.98;100.00;97698.14;135357;1264;22565;-71
2023/12/02 05:22:41;;;;;;;;;;;;;;;-0.90;100.00;97697.69;135372;1280;24239;-71
2023/12/02 05:25:44;;;;;;;49.20;17.40;;;;;;;-0.75;100.00;97705.79;135399;1280;22537;-71
2023/12/02 05:28:46;;;;;;;49.10;18.10;;;;;;;-0.74;100.00;97699.73;135346;1280;22569;-72
2023/12/02 05:31:49;;;;;;;;;;;;;;;-0.76;100.00;97701.52;135358;1260;22511;-71
2023/12/02 05:34:51;;;;;;;48.80;18.00;;;;;;;-0.71;100.00;97703.27;135410;1280;22572;-70
2023/12/02 05:37:54;;;;;;;;;;;;;;;-0.66;100.00;97685.41;135381;1280;22535;-70
2023/12/02 05:40:57;;;;;;;46.90;16.80;;;;;;;-0.68;100.00;97672.77;135370;1280;22540;-70
2023/12/02 05:43:59;;;;;;;46.50;17.00;;;;;;;-0.69;100.00;97667.81;135363;1271;22646;-69
2023/12/02 05:47:02;;;;;;;;;;;;;;;-0.72;100.00;97656.77;135367;1280;22533;-70
2023/12/02 05:50:04;;;;;;;52.40;18.50;;;;;;;-0.73;100.00;97670.37;135371;1280;22674;-70
2023/12/02 05:53:07;;;;;;;;;;;;;;;-0.80;100.00;97675.56;135407;1280;22513;-70
2023/12/02 05:56:09;;;;;;;50.90;19.70;;;;;;;-0.85;100.00;97675.73;135365;1280;22578;-70
2023/12/02 05:59:12;;;;;;;54.10;19.90;;;;;;;-0.89;100.00;97675.86;135399;1280;24303;-71
2023/12/02 06:02:14;;;;;;;;;;;;;;;-0.89;100.00;97667.62;135390;1280;22521;-69
2023/12/02 06:05:17;;;;;;;58.60;21.90;;;;;;;-0.76;100.00;97667.71;135335;1280;22645;-71
2023/12/02 06:08:20;;;;;;;;;;;;;;;-0.90;100.00;97676.93;135408;1280;22513;-72
2023/12/02 06:11:22;;;;;;;52.00;20.30;;;;;;;-0.90;100.00;97669.91;135387;1280;22561;-70
2023/12/02 06:14:25;;;;;;;;;;;;;;;-1.01;100.00;97649.84;135403;1280;25388;-70
2023/12/02 06:17:27;;;;;;;55.00;21.20;;;;;;;-0.96;100.00;97653.45;135391;1280;22622;-70
2023/12/02 06:20:30;;;;;;;;;;;;;;;-0.92;100.00;97664.98;135386;1280;22527;-70
2023/12/02 06:23:32;;;;;;;53.80;21.60;;;;;;;-0.85;100.00;97683.47;135389;1280;22549;-70
2023/12/02 06:26:37;;;;;;;52.10;21.00;;;;;;;-0.75;100.00;97692.56;135371;1280;25283;-69
2023/12/02 06:29:39;;;;;;;56.60;21.00;;;;;;;-0.71;100.00;97691.23;135384;1280;22572;-70
2023/12/02 06:32:42;;;;;;;;;;;;;;;-0.80;100.00;97703.05;135387;1280;22517;-70
2023/12/02 06:35:45;;;;;;;56.20;21.70;;;;;;;-0.71;100.00;97713.73;135410;1280;25273;-69
2023/12/02 06:38:48;;;;;;;68.60;27.40;;;;;;;-0.57;100.00;97707.59;135398;1260;22541;-70
2023/12/02 06:41:53;;;;;;;64.20;28.10;;;;;;;-0.49;100.00;97689.45;135451;1280;22555;-70
2023/12/02 06:44:56;;;;;;;;;;;;;;;-0.49;100.00;97672.64;135389;1280;22520;-69
2023/12/02 06:47:59;;;;;;;58.30;22.20;;;;;;;-0.55;100.00;97661.00;135376;1280;24906;-68
2023/12/02 06:51:04;;;;;;;67.40;30.20;;;;;;;-0.77;100.00;97656.43;135377;1280;22576;-69
2023/12/02 06:54:06;;;;;;;71.90;28.10;;;;;;;-0.79;100.00;97659.06;135366;1280;22560;-71
2023/12/02 06:57:09;;;;;;;;;;;;;;;-0.70;100.00;97665.98;135413;1280;22517;-71
2023/12/02 07:00:13;;;;;;;54.90;22.20;;;;;;;-0.60;100.00;97653.96;135348;1280;22532;-72
2023/12/02 07:03:18;;;;;;;56.70;22.30;;;;;;;-0.57;100.00;97635.33;135398;1258;22583;-71
2023/12/02 07:06:20;;;;;;;55.50;22.00;;;;;;;-0.62;100.00;97631.52;135345;1280;22549;-70
2023/12/02 07:09:23;;;;;;;51.00;19.80;;;;;;;-0.58;100.00;97638.94;135329;1280;22531;-70
2023/12/02 07:12:25;;;;;;;;;;;;;;;-0.56;100.00;97654.83;135369;1280;22546;-71
2023/12/02 07:15:28;;;;;;;54.40;20.90;;;;;;;-0.41;100.00;97666.17;135323;1280;24252;-71
2023/12/02 07:18:31;;;;;;;;;;;;;;;-0.40;100.00;97671.81;135353;1280;22533;-71
2023/12/02 07:21:33;;;;;;;54.10;18.90;;;;;;;-0.43;100.00;97684.62;135350;1280;22693;-71
2023/12/02 07:24:36;;;;;;;54.40;21.10;;;;;;;-0.40;100.00;97690.19;135328;1280;23139;-70
2023/12/02 07:27:40;;;;;;;49.30;18.70;;;;;;;-0.29;100.00;97697.52;135275;1274;22544;-70
2023/12/02 07:30:43;;;;;;;51.80;19.70;;;;;;;-0.18;100.00;97694.73;135352;1280;22531;-71
2023/12/02 07:33:46;;;;;;;;;;;;;;;-0.12;100.00;97686.30;135340;1280;22517;-70
2023/12/02 07:36:48;;;;;;;50.80;19.10;;;;;;;-0.16;100.00;97680.77;135357;1261;22608;-72
2023/12/02 07:39:51;;;;;;;54.20;19.40;;;;;;;-0.31;100.00;97690.40;135347;1280;22651;-73
2023/12/02 07:42:53;;;;;;;;;;;;;;;-0.25;100.00;97695.65;135354;1280;22513;-70
2023/12/02 07:45:56;;;;;;;52.30;18.90;;;;;;;-0.33;100.00;97684.27;135295;1280;22551;-70
2023/12/02 07:48:58;;;;;;;;;;;;;;;-0.10;100.00;97677.79;135339;1280;25282;-70
2023/12/02 07:52:01;;;;;;;49.20;18.60;;;;;;;-0.08;100.00;97666.02;135387;1280;22541;-72
2023/12/02 07:55:04;;;;;;;47.00;17.70;;;;;;;-0.09;100.00;97665.39;135401;1280;22587;-72
2023/12/02 07:58:06;;;;;;;;;;;;;;;-0.04;100.00;97675.02;135321;1280;22528;-69
2023/12/02 08:01:09;;;;;;;49.50;18.20;;;;;;;0.02;100.00;97679.08;135363;1280;22526;-72
2023/12/02 08:04:11;;;;;;;;;;;;;;;-0.08;100.00;97700.41;135401;1280;22548;-70
2023/12/02 08:07:14;;;;;;;52.10;19.50;;;;;;;-0.02;100.00;97701.38;135348;1280;22525;-71
2023/12/02 08:10:17;;;;;;;;;;;;;;;0.03;100.00;97693.48;135331;1280;22534;-70
2023/12/02 08:13:19;;;;;;;;;;;;;;;0.16;100.00;97695.23;135348;1280;22522;-72
2023/12/02 08:16:22;;;;;;;56.20;21.60;;;;;;;0.00;100.00;97704.92;135304;1280;22545;-71
2023/12/02 08:19:24;;;;;;;;;;;;;;;0.08;100.00;97717.35;135343;1280;22541;-71
2023/12/02 08:22:27;;;;;;;54.20;19.40;;;;;;;0.16;100.00;97727.91;135293;1280;25450;-70
2023/12/02 08:25:29;;;;;;;;;;;;;;;0.21;100.00;97729.08;135318;1280;22511;-71
2023/12/02 08:28:32;;;;;;;60.40;24.50;;;;;;;-0.06;100.00;97728.70;135296;1280;22543;-70
2023/12/02 08:31:35;;;;;;;;;;;;;;;0.11;100.00;97723.45;135322;1261;22547;-70
2023/12/02 08:34:40;;;;;;;66.00;24.90;;;;;;;0.13;100.00;97733.00;135336;1261;22633;-71
2023/12/02 08:37:43;;;;;;;63.10;25.80;;;;;;;0.36;100.00;97734.73;135329;1280;22546;-71
2023/12/02 08:40:49;;;;;;;;;;;;;;;0.42;100.00;97746.23;135365;1280;22520;-70
2023/12/02 08:43:53;;;;;;;66.20;26.40;;;;;;;0.45;100.00;97734.94;135311;1280;25288;-70
2023/12/02 08:46:56;;;;;;;67.70;24.20;;;;;;;0.44;100.00;97732.89;135367;1280;22807;-70
2023/12/02 08:49:58;;;;;;;68.80;25.70;;;;;;;0.42;100.00;97732.80;135338;1264;24213;-70
2023/12/02 08:53:01;;;;;;;;;;;;;;;0.33;100.00;97727.95;135365;1280;22517;-70
2023/12/02 08:56:03;;;;;;;56.80;23.00;;;;;;;0.35;100.00;97718.63;135378;1280;22543;-70
2023/12/02 08:59:06;;;;;;;64.20;24.70;;;;;;;0.17;100.00;97704.15;135328;1280;22529;-70
2023/12/02 09:02:09;;;;;;;;;;;;;;;0.19;100.00;97700.13;135360;1280;22507;-71
2023/12/02 09:05:11;;;;;;;65.40;24.90;;;;;;;0.16;100.00;97698.50;135370;1280;22549;-70
2023/12/02 09:08:14;;;;;;;;;;;;;;;0.10;100.00;97691.15;135340;1260;23367;-71
2023/12/02 09:11:16;;;;;;;66.50;24.50;;;;;;;0.11;100.00;97683.20;135351;1280;22581;-70
2023/12/02 09:14:19;;;;;;;;;;;;;;;0.29;100.00;97702.66;135324;1280;22555;-70
2023/12/02 09:17:21;;;;;;;62.60;26.00;;;;;;;0.33;100.00;97717.64;135326;1280;22540;-69
2023/12/02 09:20:24;;;;;;;;;;;;;;;0.42;100.00;97705.29;135343;1280;22525;-69
2023/12/02 09:23:27;;;;;;;59.00;23.90;;;;;;;0.46;100.00;97697.58;135318;1280;22532;-69
2023/12/02 09:26:30;;;;;;;59.00;24.50;;;;;;;0.54;100.00;97695.53;135333;1280;25427;-70
2023/12/02 09:29:32;;;;;;;;;;;;;;;0.79;100.00;97709.05;135360;1280;22510;-71
2023/12/02 09:32:35;;;;;;;57.00;22.00;;;;;;;0.93;100.00;97700.88;135300;1261;22562;-70
2023/12/02 09:35:37;;;;;;;;;;;;;;;0.95;100.00;97694.10;135319;1280;22540;-72
2023/12/02 09:38:40;;;;;;;60.20;24.30;;;;;;;1.05;100.00;97695.26;135357;1280;22539;-72
2023/12/02 09:41:42;;;;;;;;;;;;;;;1.25;100.00;97691.52;135275;1281;22644;-72
2023/12/02 09:44:45;;;;;;;58.70;22.50;;;;;;;1.36;100.00;97680.20;135361;1274;22248;-72
2023/12/02 09:47:49;;;;;;;55.10;23.10;;;;;;;1.21;100.00;97676.71;135540;1281;22566;-73
2023/12/02 09:50:51;;;;;;;;;;;;;;;1.20;100.00;97680.54;135183;1281;22514;-73
2023/12/02 09:53:54;;;;;;;59.50;23.80;;;;;;;1.26;100.00;97678.42;135172;1281;22542;-73
2023/12/02 09:56:57;;;;;;;51.90;23.40;;;;;;;1.17;100.00;97679.63;135116;1281;22551;-73
2023/12/02 09:59:59;;;;;;;56.60;22.80;;;;;;;1.15;100.00;97676.41;135143;1281;22544;-73
2023/12/02 10:03:11;;;;;;;58.10;23.70;;;;;;;1.01;100.00;97678.38;131021;1281;5353170;-73
2023/12/02 10:06:13;;;;;;;55.30;23.00;;;;;;;1.31;100.00;97680.61;136436;1281;23323;-73
2023/12/02 10:09:16;;;;;;;;;;;;;;;1.51;100.00;97687.70;134995;1282;22506;-71
2023/12/02 10:12:19;;;;;;;54.30;20.70;;;;;;;1.45;100.00;97673.30;135049;1281;22664;-73
2023/12/02 10:15:22;;;;;;;49.80;21.30;;;;;;;1.37;100.00;97652.63;135045;1281;25489;-73
2023/12/02 10:18:24;;;;;;;50.20;20.90;;;;;;;1.32;100.00;97646.48;135078;1282;22550;-73
2023/12/02 10:21:27;;;;;;;;;;;;;;;1.12;100.00;97653.64;135156;1281;22639;-73
2023/12/02 10:24:29;;;;;;;51.80;22.10;;;;;;;1.07;100.00;97635.09;135138;1281;22539;-73
2023/12/02 10:27:32;;;;;;;;;;;;;;;1.06;100.00;97648.21;135138;1261;22536;-72
2023/12/02 10:30:38;;;;;;;54.90;22.10;;;;;;;1.15;100.00;97651.27;135154;1281;22522;-72
2023/12/02 10:33:41;;;;;;;58.40;24.20;;;;;;;1.30;100.00;97669.95;135147;1264;22818;-73
2023/12/02 10:36:43;;;;;;;50.60;22.80;;;;;;;1.29;100.00;97678.44;135146;1281;25622;-73
2023/12/02 10:39:48;;;;;;;;;;;;;;;1.20;100.00;97661.27;135156;1258;22647;-71
2023/12/02 10:42:51;;;;;;;48.70;20.20;;;;;;;1.25;100.00;97633.50;135209;1282;22663;-72
2023/12/02 10:45:53;;;;;;;52.60;21.90;;;;;;;1.19;100.00;97625.27;135188;1282;22550;-74
2023/12/02 10:48:56;;;;;;;;;;;;;;;1.03;100.00;97625.09;135178;1281;22519;-74
2023/12/02 10:51:58;;;;;;;56.30;20.90;;;;;;;1.06;100.00;97627.02;135206;1281;24211;-73
2023/12/02 10:55:01;;;;;;;;;;;;;;;1.02;100.00;97639.58;135164;1281;22645;-73
2023/12/02 10:58:04;;;;;;;53.60;21.60;;;;;;;1.13;100.00;97644.63;135164;1281;22680;-73
2023/12/02 11:01:06;;;;;;;;;;;;;;;1.24;100.00;97642.64;135160;1281;22525;-73
2023/12/02 11:04:12;;;;;;;56.00;21.60;;;;;;;1.31;100.00;97632.55;135219;1261;22563;-73
2023/12/02 11:07:15;;;;;;;55.70;21.70;;;;;;;1.22;100.00;97620.84;135201;1261;22531;-72
2023/12/02 11:10:19;;;;;;;;;;;;;;;1.27;100.00;97613.61;135236;1281;22526;-74
2023/12/02 11:13:23;;;;;;;52.30;20.30;;;;;;;1.49;100.00;97596.80;135183;1281;22564;-73
2023/12/02 11:16:26;;;;;;;52.40;21.60;;;;;;;1.42;100.00;97595.02;135179;1281;22562;-73
2023/12/02 11:19:28;;;;;;;53.00;21.40;;;;;;;1.35;100.00;97590.85;135210;1281;22576;-73
2023/12/02 11:22:32;;;;;;;;;;;;;;;1.51;100.00;97599.80;135209;1281;22520;-73
2023/12/02 11:25:34;;;;;;;51.50;20.40;;;;;;;1.54;100.00;97624.83;135212;1281;22559;-74
2023/12/02 11:28:37;;;;;;;;;;;;;;;1.44;100.00;97623.89;135222;1281;22510;-72
2023/12/02 11:31:42;;;;;;;49.30;20.70;;;;;;;1.59;100.00;97619.63;135197;1281;22529;-74
2023/12/02 11:34:45;;;;;;;45.00;17.80;;;;;;;1.66;100.00;97611.89;135211;1281;22535;-74
2023/12/02 11:37:48;;;;;;;;;;;;;;;1.63;100.00;97613.41;135208;1281;22510;-72
2023/12/02 11:40:50;;;;;;;52.40;21.90;;;;;;;1.60;100.00;97627.67;135188;1261;24225;-72
2023/12/02 11:43:53;;;;;;;51.20;22.20;;;;;;;1.61;100.00;97618.00;135197;1261;22528;-74
2023/12/02 11:46:55;;;;;;;;;;;;;;;1.62;100.00;97611.04;135203;1263;22562;-73
2023/12/02 11:49:58;;;;;;;51.90;21.90;;;;;;;1.42;100.00;97599.16;135141;1281;22550;-72
2023/12/02 11:53:01;;;;;;;;;;;;;;;1.38;100.00;97585.73;135134;1281;22527;-72
2023/12/02 11:56:04;;;;;;;52.80;20.60;;;;;;;1.39;100.00;97592.21;135178;1281;22591;-73
2023/12/02 11:59:07;;;;;;;52.40;21.10;;;;;;;1.39;100.00;97592.74;135187;1281;22556;-72
2023/12/02 12:02:09;;;;;;;;;;;;;;;1.32;100.00;97594.43;135205;1281;22617;-73
2023/12/02 12:05:12;;;;;;;53.80;21.60;;;;;;;1.34;100.00;97606.05;135173;1281;22538;-72
2023/12/02 12:08:16;;;;;;;52.40;21.90;;;;;;;1.44;100.00;97600.98;135277;1277;22545;-72
2023/12/02 12:11:19;;;;;;;;;;;;;;;1.55;100.00;97599.09;135256;1281;22517;-72
2023/12/02 12:14:21;;;;;;;54.00;20.90;;;;;;;1.43;100.00;97609.13;135224;1281;24299;-73
2023/12/02 12:17:24;;;;;;;;;;;;;;;1.44;100.00;97619.27;135225;1282;22625;-72
2023/12/02 12:20:27;;;;;;;51.30;19.90;;;;;;;1.34;100.00;97609.83;135133;1282;22562;-73
2023/12/02 12:23:31;;;;;;;53.90;20.90;;;;;;;1.23;100.00;97606.86;135215;1281;22653;-72
2023/12/02 12:26:33;;;;;;;50.80;21.30;;;;;;;1.42;100.00;97616.41;135220;1281;22545;-73
2023/12/02 12:29:36;;;;;;;;;;;;;;;1.36;100.00;97616.97;135226;1281;22565;-73
2023/12/02 12:32:39;;;;;;;55.30;21.90;;;;;;;1.17;100.00;97604.35;135223;1281;22535;-74
2023/12/02 12:35:41;;;;;;;50.00;19.40;;;;;;;1.01;100.00;97607.27;135230;1282;22554;-74
2023/12/02 12:38:44;;;;;;;;;;;;;;;0.91;100.00;97608.03;135236;1282;22519;-73
2023/12/02 12:41:46;;;;;;;51.70;20.20;;;;;;;0.97;100.00;97599.69;135188;1281;22571;-72
2023/12/02 12:44:49;;;;;;;;;;;;;;;0.89;100.00;97580.55;135182;1282;22762;-74
2023/12/02 12:47:51;;;;;;;47.80;18.90;;;;;;;0.78;100.00;97567.95;135245;1281;22539;-73
2023/12/02 12:50:54;;;;;;;;;;;;;;;0.71;100.00;97574.23;135206;1281;22531;-70
2023/12/02 12:53:57;;;;;;;56.50;21.80;;;;;;;0.76;100.00;97578.18;135227;1282;22538;-74
2023/12/02 12:56:59;;;;;;;;;;;;;;;0.88;100.00;97579.23;135201;1281;22539;-72
2023/12/02 13:00:03;;;;;;;52.40;20.70;;;;;;;0.92;100.00;97577.35;135162;1282;22535;-73
2023/12/02 13:03:06;;;;;;;51.80;20.60;;;;;;;0.75;100.00;97582.86;135150;1282;25691;-75
2023/12/02 13:06:09;;;;;;;54.60;22.00;;;;;;;0.89;100.00;97594.67;135186;1282;22548;-73
2023/12/02 13:09:12;;;;;;;;;;;;;;;0.85;100.00;97612.07;135163;1282;22522;-74
2023/12/02 13:12:14;;;;;;;48.70;20.30;;;;;;;0.75;100.00;97618.14;135154;1260;22851;-73
2023/12/02 13:15:17;;;;;;;53.80;23.00;;;;;;;0.80;100.00;97631.70;135210;1282;22547;-73
2023/12/02 13:18:20;;;;;;;51.30;19.30;;;;;;;0.84;100.00;97632.08;135163;1281;24872;-73
2023/12/02 13:21:25;;;;;;;53.40;21.80;;;;;;;0.83;100.00;97627.10;135186;1261;22805;-71
2023/12/02 13:24:27;;;;;;;;;;;;;;;0.86;100.00;97632.88;135189;1282;22521;-73
2023/12/02 13:27:30;;;;;;;47.40;20.20;;;;;;;0.81;100.00;97623.40;135226;1261;22646;-73
2023/12/02 13:30:32;;;;;;;;;;;;;;;0.81;100.00;97596.73;135214;1282;22510;-73
2023/12/02 13:33:35;;;;;;;52.00;20.30;;;;;;;0.74;100.00;97563.30;135204;1282;22570;-76
2023/12/02 13:36:38;;;;;;;;;;;;;;;0.75;100.00;97538.63;135223;1282;22594;-73
2023/12/02 13:39:40;;;;;;;51.10;19.90;;;;;;;0.61;100.00;97550.56;135220;1281;22545;-73
2023/12/02 13:42:44;;;;;;;;;;;;;;;0.61;100.00;97567.98;135190;1282;23565;-74
2023/12/02 13:45:47;;;;;;;52.50;21.40;;;;;;;0.70;100.00;97587.21;135187;1282;22545;-75
2023/12/02 13:48:49;;;;;;;;;;;;;;;0.75;100.00;97609.89;135171;1282;22524;-73
2023/12/02 13:51:52;;;;;;;42.90;16.70;;;;;;;0.62;100.00;97599.42;135222;1282;23895;-74
2023/12/02 13:54:56;;;;;;;;;;;;;;;0.55;100.00;97563.19;135208;1282;22523;-75
2023/12/02 13:57:59;;;;;;;51.00;19.50;;;;;;;0.43;100.00;97580.36;135190;1282;22542;-73
2023/12/02 14:01:02;;;;;;;;;;;;;;;0.41;100.00;97622.59;135214;1282;24357;-75
2023/12/02 14:04:06;;;;;;;55.70;21.20;;;;;;;0.51;100.00;97636.47;135202;1266;24212;-74
2023/12/02 14:07:09;;;;;;;51.60;20.50;;;;;;;0.49;100.00;97612.44;135177;1280;22653;-74
2023/12/02 14:10:12;;;;;;;52.70;20.30;;;;;;;0.45;100.00;97613.67;135179;1261;22559;-74
2023/12/02 14:13:15;;;;;;;;;;;;;;;0.39;100.00;97618.73;135202;1282;22632;-74
2023/12/02 14:16:17;;;;;;;47.10;18.10;;;;;;;0.37;100.00;97593.33;135197;1259;22613;-74
2023/12/02 14:19:20;;;;;;;50.60;19.10;;;;;;;0.36;100.00;97585.46;135183;1282;22552;-75
2023/12/02 14:22:22;;;;;;;;;;;;;;;0.37;100.00;97588.50;135230;1261;22505;-74